createdAt,value
2018-11-28T00:00:28.172Z,4.3
2018-11-28T00:01:27.890Z,4.26
2018-11-28T00:02:27.890Z,4.25
2018-11-28T00:03:28.229Z,4.22
2018-11-28T00:04:28.153Z,4.18
2018-11-28T00:05:28.114Z,4.18
2018-11-28T00:06:28.097Z,4.17
2018-11-28T00:07:27.856Z,4.15
2018-11-28T00:08:27.953Z,4.13
2018-11-28T00:09:28.230Z,4.13
2018-11-28T00:10:27.851Z,4.13
2018-11-28T00:11:27.870Z,4.13
2018-11-28T00:12:27.864Z,4.13
2018-11-28T00:13:27.977Z,4.12
2018-11-28T00:14:27.962Z,4.12
2018-11-28T00:15:27.923Z,4.12
2018-11-28T00:16:27.939Z,4.13
2018-11-28T00:17:27.886Z,4.13
2018-11-28T00:18:27.886Z,4.14
2018-11-28T00:19:27.845Z,4.13
2018-11-28T00:20:28.112Z,4.12
2018-11-28T00:21:27.986Z,4.09
2018-11-28T00:22:27.838Z,4.05
2018-11-28T00:23:27.924Z,4.06
2018-11-28T00:24:27.839Z,4.06
2018-11-28T00:25:27.825Z,4.07
2018-11-28T00:26:28.018Z,4.07
2018-11-28T00:27:27.848Z,4.08
2018-11-28T00:28:27.855Z,4.11
2018-11-28T00:29:27.833Z,4.12
2018-11-28T00:30:27.939Z,4.09
2018-11-28T00:31:27.830Z,4.12
2018-11-28T00:32:27.818Z,4.12
2018-11-28T00:33:27.818Z,4.13
2018-11-28T00:34:27.826Z,4.12
2018-11-28T00:35:27.817Z,4.11
2018-11-28T00:36:27.842Z,4.07
2018-11-28T00:37:27.818Z,4.07
2018-11-28T00:38:27.865Z,4.07
2018-11-28T00:39:27.920Z,4.06
2018-11-28T00:40:27.805Z,4.05
2018-11-28T00:41:27.882Z,4.04
2018-11-28T00:42:27.933Z,4.05
2018-11-28T00:43:27.875Z,4.06
2018-11-28T00:44:27.886Z,4.05
2018-11-28T00:45:27.824Z,4.03
2018-11-28T00:46:27.831Z,4.05
2018-11-28T00:47:27.840Z,4.04
2018-11-28T00:48:27.861Z,4.04
2018-11-28T00:49:27.863Z,4.06
2018-11-28T00:50:27.913Z,4.04
2018-11-28T00:51:28.038Z,4.07
2018-11-28T00:52:27.837Z,4.07
2018-11-28T00:53:27.896Z,4.1
2018-11-28T00:54:28.160Z,4.08
2018-11-28T00:55:27.966Z,4.08
2018-11-28T00:56:27.879Z,4.09
2018-11-28T00:57:27.840Z,4.08
2018-11-28T00:58:27.946Z,4.08
2018-11-28T00:59:28.167Z,4.08
2018-11-28T01:00:27.822Z,4.09
2018-11-28T01:01:27.896Z,4.11
2018-11-28T01:02:27.873Z,4.09
2018-11-28T01:03:28.163Z,4.08
2018-11-28T01:04:28.087Z,4.11
2018-11-28T01:05:27.823Z,4.09
2018-11-28T01:06:28.131Z,4.11
2018-11-28T01:07:27.824Z,4.09
2018-11-28T01:08:27.827Z,4.11
2018-11-28T01:09:27.746Z,4.12
2018-11-28T01:10:27.809Z,4.11
2018-11-28T01:11:27.779Z,4.12
2018-11-28T01:12:27.757Z,4.13
2018-11-28T01:13:28.633Z,4.12
2018-11-28T01:14:27.809Z,4.12
2018-11-28T01:15:27.793Z,4.11
2018-11-28T01:16:27.798Z,4.1
2018-11-28T01:17:27.915Z,4.11
2018-11-28T01:18:27.796Z,4.1
2018-11-28T01:19:27.803Z,4.08
2018-11-28T01:20:28.001Z,4.09
2018-11-28T01:21:28.309Z,4.07
2018-11-28T01:22:27.959Z,4.06
2018-11-28T01:23:27.761Z,4.04
2018-11-28T01:24:28.261Z,4.06
2018-11-28T01:25:27.845Z,4.07
2018-11-28T01:26:28.021Z,4.06
2018-11-28T01:27:27.757Z,4.06
2018-11-28T01:28:28.123Z,4.06
2018-11-28T01:29:27.805Z,4.08
2018-11-28T01:30:27.963Z,4.06
2018-11-28T01:31:27.936Z,4.05
2018-11-28T01:32:27.758Z,4.02
2018-11-28T01:33:27.886Z,4.04
2018-11-28T01:34:27.735Z,4.03
2018-11-28T01:35:27.749Z,4.01
2018-11-28T01:36:27.887Z,4
2018-11-28T01:37:27.742Z,3.99
2018-11-28T01:38:27.814Z,4
2018-11-28T01:39:27.755Z,3.99
2018-11-28T01:40:27.865Z,3.94
2018-11-28T01:41:27.889Z,3.94
2018-11-28T01:42:27.878Z,3.89
2018-11-28T01:43:27.738Z,3.88
2018-11-28T01:44:27.981Z,3.88
2018-11-28T01:45:27.904Z,3.89
2018-11-28T01:46:27.809Z,3.89
2018-11-28T01:47:27.797Z,3.88
2018-11-28T01:48:27.941Z,3.87
2018-11-28T01:49:27.782Z,3.85
2018-11-28T01:50:27.940Z,3.87
2018-11-28T01:51:27.740Z,3.85
2018-11-28T01:52:27.725Z,3.86
2018-11-28T01:53:27.925Z,3.87
2018-11-28T01:54:27.744Z,3.87
2018-11-28T01:55:27.908Z,3.84
2018-11-28T01:56:27.894Z,3.83
2018-11-28T01:57:27.762Z,3.82
2018-11-28T01:58:27.687Z,3.81
2018-11-28T01:59:27.722Z,3.78
2018-11-28T02:00:27.702Z,3.82
2018-11-28T02:01:27.706Z,3.8
2018-11-28T02:02:27.733Z,3.8
2018-11-28T02:03:27.704Z,3.79
2018-11-28T02:04:27.702Z,3.81
2018-11-28T02:05:27.721Z,3.8
2018-11-28T02:06:27.719Z,3.79
2018-11-28T02:07:27.715Z,3.77
2018-11-28T02:08:27.762Z,3.79
2018-11-28T02:09:27.748Z,3.76
2018-11-28T02:10:27.691Z,3.77
2018-11-28T02:11:27.731Z,3.75
2018-11-28T02:12:27.735Z,3.75
2018-11-28T02:13:27.730Z,3.73
2018-11-28T02:14:27.666Z,3.73
2018-11-28T02:15:27.675Z,3.73
2018-11-28T02:16:27.670Z,3.74
2018-11-28T02:17:27.688Z,3.74
2018-11-28T02:18:27.710Z,3.74
2018-11-28T02:19:27.669Z,3.73
2018-11-28T02:20:27.784Z,3.74
2018-11-28T02:21:27.684Z,3.73
2018-11-28T02:22:27.707Z,3.72
2018-11-28T02:23:27.626Z,3.73
2018-11-28T02:24:27.824Z,3.7
2018-11-28T02:25:27.744Z,3.72
2018-11-28T02:26:27.718Z,3.7
2018-11-28T02:27:27.665Z,3.72
2018-11-28T02:28:27.715Z,3.69
2018-11-28T02:29:27.841Z,3.69
2018-11-28T02:30:27.765Z,3.66
2018-11-28T02:31:27.821Z,3.61
2018-11-28T02:32:27.668Z,3.59
2018-11-28T02:33:28.384Z,3.56
2018-11-28T02:34:27.706Z,3.56
2018-11-28T02:35:27.871Z,3.55
2018-11-28T02:36:27.860Z,3.56
2018-11-28T02:37:27.681Z,3.52
2018-11-28T02:38:27.668Z,3.55
2018-11-28T02:39:27.838Z,3.55
2018-11-28T02:40:27.877Z,3.55
2018-11-28T02:41:27.659Z,3.55
2018-11-28T02:42:27.684Z,3.55
2018-11-28T02:43:27.844Z,3.54
2018-11-28T02:44:27.706Z,3.54
2018-11-28T02:45:27.891Z,3.55
2018-11-28T02:46:27.650Z,3.54
2018-11-28T02:47:27.676Z,3.54
2018-11-28T02:48:27.677Z,3.54
2018-11-28T02:49:27.757Z,3.52
2018-11-28T02:50:27.805Z,3.52
2018-11-28T02:51:27.781Z,3.49
2018-11-28T02:52:27.882Z,3.52
2018-11-28T02:53:27.838Z,3.48
2018-11-28T02:54:27.898Z,3.5
2018-11-28T02:55:27.918Z,3.48
2018-11-28T02:56:27.908Z,3.47
2018-11-28T02:57:27.638Z,3.47
2018-11-28T02:58:27.650Z,3.45
2018-11-28T02:59:27.623Z,3.43
2018-11-28T03:00:27.822Z,3.41
2018-11-28T03:01:27.742Z,3.37
2018-11-28T03:02:27.778Z,3.34
2018-11-28T03:03:28.004Z,3.35
2018-11-28T03:04:27.620Z,3.33
2018-11-28T03:05:27.669Z,3.35
2018-11-28T03:06:27.650Z,3.35
2018-11-28T03:07:27.781Z,3.34
2018-11-28T03:08:27.687Z,3.31
2018-11-28T03:09:27.745Z,3.28
2018-11-28T03:10:27.615Z,3.3
2018-11-28T03:11:27.605Z,3.3
2018-11-28T03:12:27.806Z,3.29
2018-11-28T03:13:27.802Z,3.26
2018-11-28T03:14:27.583Z,3.23
2018-11-28T03:15:27.822Z,3.23
2018-11-28T03:16:27.661Z,3.22
2018-11-28T03:17:27.626Z,3.2
2018-11-28T03:18:27.694Z,3.14
2018-11-28T03:19:27.769Z,3.17
2018-11-28T03:20:27.692Z,3.17
2018-11-28T03:21:27.645Z,3.17
2018-11-28T03:22:27.733Z,3.16
2018-11-28T03:23:27.677Z,3.18
2018-11-28T03:24:27.582Z,3.17
2018-11-28T03:25:27.777Z,3.13
2018-11-28T03:26:27.681Z,3.13
2018-11-28T03:27:27.978Z,3.12
2018-11-28T03:28:27.669Z,3.15
2018-11-28T03:29:27.720Z,3.13
2018-11-28T03:30:27.981Z,3.13
2018-11-28T03:31:27.663Z,3.15
2018-11-28T03:32:27.717Z,3.15
2018-11-28T03:33:27.750Z,3.13
2018-11-28T03:34:28.150Z,3.17
2018-11-28T03:35:27.795Z,3.18
2018-11-28T03:36:27.651Z,3.16
2018-11-28T03:37:27.606Z,3.13
2018-11-28T03:38:27.672Z,3.15
2018-11-28T03:39:27.688Z,3.11
2018-11-28T03:40:27.643Z,3.1
2018-11-28T03:41:27.592Z,3.09
2018-11-28T03:42:27.638Z,3.09
2018-11-28T03:43:27.576Z,3.07
2018-11-28T03:44:28.079Z,3.09
2018-11-28T03:45:27.593Z,3.06
2018-11-28T03:46:27.596Z,3.06
2018-11-28T03:47:27.716Z,3.07
2018-11-28T03:48:27.597Z,3.1
2018-11-28T03:49:27.627Z,3.09
2018-11-28T03:50:27.606Z,3.11
2018-11-28T03:51:27.662Z,3.11
2018-11-28T03:52:27.605Z,3.09
2018-11-28T03:53:27.595Z,3.12
2018-11-28T03:54:27.603Z,3.1
2018-11-28T03:55:27.708Z,3.1
2018-11-28T03:56:27.567Z,3.07
2018-11-28T03:57:27.623Z,3.09
2018-11-28T03:58:27.601Z,3.09
2018-11-28T03:59:27.654Z,3.08
2018-11-28T04:00:27.660Z,3.05
2018-11-28T04:01:27.816Z,3.05
2018-11-28T04:02:27.705Z,3.02
2018-11-28T04:03:27.619Z,3.05
2018-11-28T04:04:27.684Z,3.06
2018-11-28T04:05:27.588Z,3.05
2018-11-28T04:06:27.606Z,3.06
2018-11-28T04:07:27.639Z,3.09
2018-11-28T04:08:27.562Z,3.08
2018-11-28T04:09:27.750Z,3.09
2018-11-28T04:10:27.656Z,3.11
2018-11-28T04:11:28.296Z,3.11
2018-11-28T04:12:27.815Z,3.1
2018-11-28T04:13:27.643Z,3.11
2018-11-28T04:14:27.619Z,3.1
2018-11-28T04:15:27.692Z,3.11
2018-11-28T04:16:27.570Z,3.09
2018-11-28T04:17:27.569Z,3.09
2018-11-28T04:18:27.849Z,3.07
2018-11-28T04:19:27.615Z,3.05
2018-11-28T04:20:27.657Z,3.06
2018-11-28T04:21:27.716Z,3.05
2018-11-28T04:22:27.532Z,3.04
2018-11-28T04:23:27.747Z,3.02
2018-11-28T04:24:27.907Z,3.04
2018-11-28T04:25:27.709Z,3.03
2018-11-28T04:26:27.572Z,3.01
2018-11-28T04:27:27.637Z,3.02
2018-11-28T04:28:27.586Z,3.01
2018-11-28T04:29:27.639Z,3.01
2018-11-28T04:30:27.557Z,3
2018-11-28T04:31:27.756Z,2.97
2018-11-28T04:32:27.554Z,2.91
2018-11-28T04:33:27.549Z,2.93
2018-11-28T04:34:27.616Z,2.91
2018-11-28T04:35:28.052Z,2.88
2018-11-28T04:36:27.747Z,2.92
2018-11-28T04:37:27.520Z,2.89
2018-11-28T04:38:27.665Z,2.9
2018-11-28T04:39:27.656Z,2.92
2018-11-28T04:40:27.818Z,2.93
2018-11-28T04:41:27.498Z,2.93
2018-11-28T04:42:27.681Z,2.91
2018-11-28T04:43:27.650Z,2.88
2018-11-28T04:44:27.760Z,2.87
2018-11-28T04:45:27.707Z,2.84
2018-11-28T04:46:27.547Z,2.87
2018-11-28T04:47:27.528Z,2.86
2018-11-28T04:48:27.580Z,2.86
2018-11-28T04:49:27.495Z,2.86
2018-11-28T04:50:27.575Z,2.88
2018-11-28T04:51:27.571Z,2.88
2018-11-28T04:52:27.546Z,2.88
2018-11-28T04:53:27.722Z,2.85
2018-11-28T04:54:27.637Z,2.86
2018-11-28T04:55:27.490Z,2.86
2018-11-28T04:56:27.495Z,2.88
2018-11-28T04:57:27.602Z,2.9
2018-11-28T04:58:27.612Z,2.89
2018-11-28T04:59:27.635Z,2.89
2018-11-28T05:00:27.587Z,2.9
2018-11-28T05:01:27.685Z,2.92
2018-11-28T05:02:27.658Z,2.94
2018-11-28T05:03:27.474Z,2.93
2018-11-28T05:04:27.672Z,2.94
2018-11-28T05:05:27.530Z,2.96
2018-11-28T05:06:27.630Z,2.94
2018-11-28T05:07:27.669Z,2.94
2018-11-28T05:08:27.716Z,2.93
2018-11-28T05:09:27.722Z,2.92
2018-11-28T05:10:27.660Z,2.93
2018-11-28T05:11:28.349Z,2.94
2018-11-28T05:12:27.622Z,2.94
2018-11-28T05:13:27.569Z,3
2018-11-28T05:14:27.729Z,2.98
2018-11-28T05:15:27.543Z,2.97
2018-11-28T05:16:27.636Z,2.95
2018-11-28T05:17:27.592Z,2.92
2018-11-28T05:18:27.464Z,2.93
2018-11-28T05:19:27.456Z,2.92
2018-11-28T05:20:27.591Z,2.93
2018-11-28T05:21:27.506Z,2.94
2018-11-28T05:22:27.493Z,2.95
2018-11-28T05:23:27.439Z,2.94
2018-11-28T05:24:27.401Z,2.92
2018-11-28T05:25:28.537Z,2.93
2018-11-28T05:26:27.419Z,2.92
2018-11-28T05:27:27.569Z,2.9
2018-11-28T05:28:27.441Z,2.93
2018-11-28T05:29:27.422Z,2.89
2018-11-28T05:30:27.480Z,2.89
2018-11-28T05:31:27.472Z,2.91
2018-11-28T05:32:27.466Z,2.91
2018-11-28T05:33:27.511Z,2.91
2018-11-28T05:34:27.407Z,2.92
2018-11-28T05:35:27.483Z,2.93
2018-11-28T05:36:28.692Z,2.95
2018-11-28T05:37:27.505Z,2.92
2018-11-28T05:38:27.434Z,2.93
2018-11-28T05:39:27.502Z,2.93
2018-11-28T05:40:27.863Z,2.92
2018-11-28T05:41:29.863Z,2.93
2018-11-28T05:42:27.743Z,2.9
2018-11-28T05:43:27.463Z,2.86
2018-11-28T05:44:27.537Z,2.9
2018-11-28T05:45:27.951Z,2.87
2018-11-28T05:46:27.565Z,2.89
2018-11-28T05:47:27.365Z,2.91
2018-11-28T05:48:27.635Z,2.88
2018-11-28T05:49:27.450Z,2.86
2018-11-28T05:50:27.684Z,2.91
2018-11-28T05:51:27.400Z,2.91
2018-11-28T05:52:27.537Z,2.9
2018-11-28T05:53:27.581Z,2.92
2018-11-28T05:54:27.538Z,2.92
2018-11-28T05:55:27.615Z,2.91
2018-11-28T05:56:27.619Z,2.9
2018-11-28T05:57:27.421Z,2.93
2018-11-28T05:58:27.546Z,2.89
2018-11-28T05:59:27.965Z,2.91
2018-11-28T06:00:28.241Z,2.88
2018-11-28T06:01:28.216Z,2.89
2018-11-28T06:02:27.473Z,2.89
2018-11-28T06:03:27.377Z,2.9
2018-11-28T06:04:27.399Z,2.89
2018-11-28T06:05:27.681Z,2.89
2018-11-28T06:06:27.587Z,2.9
2018-11-28T06:07:27.614Z,2.92
2018-11-28T06:08:27.414Z,2.94
2018-11-28T06:09:27.800Z,2.98
2018-11-28T06:10:27.466Z,3.01
2018-11-28T06:11:27.502Z,3
2018-11-28T06:12:27.425Z,3.02
2018-11-28T06:13:27.367Z,3.01
2018-11-28T06:14:27.546Z,3.02
2018-11-28T06:15:27.523Z,3.02
2018-11-28T06:16:27.389Z,3.05
2018-11-28T06:17:27.445Z,3.06
2018-11-28T06:18:27.553Z,3.06
2018-11-28T06:19:27.457Z,3.1
2018-11-28T06:20:27.645Z,3.04
2018-11-28T06:21:27.394Z,3.06
2018-11-28T06:22:27.430Z,3.06
2018-11-28T06:23:27.415Z,3.1
2018-11-28T06:24:27.474Z,3.08
2018-11-28T06:25:27.822Z,3.1
2018-11-28T06:26:27.438Z,3.11
2018-11-28T06:27:27.564Z,3.11
2018-11-28T06:28:27.519Z,3.12
2018-11-28T06:29:27.438Z,3.1
2018-11-28T06:30:27.607Z,3.08
2018-11-28T06:31:27.422Z,3.1
2018-11-28T06:32:27.522Z,3.15
2018-11-28T06:33:27.586Z,3.16
2018-11-28T06:34:27.514Z,3.16
2018-11-28T06:35:27.752Z,3.16
2018-11-28T06:36:27.641Z,3.2
2018-11-28T06:37:28.702Z,3.18
2018-11-28T06:38:27.357Z,3.16
2018-11-28T06:39:27.458Z,3.13
2018-11-28T06:40:27.463Z,3.09
2018-11-28T06:41:27.531Z,3.05
2018-11-28T06:42:27.473Z,3.06
2018-11-28T06:43:27.563Z,3.11
2018-11-28T06:44:27.476Z,3.1
2018-11-28T06:45:27.837Z,3.11
2018-11-28T06:46:27.462Z,3.1
2018-11-28T06:47:27.438Z,3.1
2018-11-28T06:48:27.511Z,3.11
2018-11-28T06:49:27.480Z,3.11
2018-11-28T06:50:27.416Z,3.1
2018-11-28T06:51:27.676Z,3.09
2018-11-28T06:52:27.326Z,3.12
2018-11-28T06:53:27.376Z,3.12
2018-11-28T06:54:27.451Z,3.12
2018-11-28T06:55:27.461Z,3.12
2018-11-28T06:56:27.488Z,3.05
2018-11-28T06:57:27.339Z,3.06
2018-11-28T06:58:27.384Z,3.08
2018-11-28T06:59:27.415Z,3.06
2018-11-28T07:00:27.291Z,3.1
2018-11-28T07:01:27.346Z,3.09
2018-11-28T07:02:27.337Z,3.1
2018-11-28T07:03:27.342Z,3.09
2018-11-28T07:04:28.368Z,3.04
2018-11-28T07:05:27.844Z,3.06
2018-11-28T07:06:27.348Z,3.07
2018-11-28T07:07:27.311Z,3.1
2018-11-28T07:08:27.354Z,3.09
2018-11-28T07:09:27.388Z,3.09
2018-11-28T07:10:27.416Z,3.08
2018-11-28T07:11:27.313Z,3.08
2018-11-28T07:12:27.427Z,3.04
2018-11-28T07:13:27.366Z,3.05
2018-11-28T07:14:27.439Z,3.05
2018-11-28T07:15:27.322Z,3.02
2018-11-28T07:16:27.472Z,3.03
2018-11-28T07:17:27.371Z,3.05
2018-11-28T07:18:27.325Z,3.06
2018-11-28T07:19:27.471Z,3.07
2018-11-28T07:20:27.352Z,3.06
2018-11-28T07:21:27.340Z,3.07
2018-11-28T07:22:27.422Z,3.11
2018-11-28T07:23:27.372Z,3.08
2018-11-28T07:24:27.524Z,3.08
2018-11-28T07:25:27.735Z,3.03
2018-11-28T07:26:27.372Z,3.05
2018-11-28T07:27:27.403Z,3.06
2018-11-28T07:28:27.840Z,3.03
2018-11-28T07:29:27.352Z,3.04
2018-11-28T07:30:27.434Z,3.01
2018-11-28T07:31:27.409Z,3.01
2018-11-28T07:32:27.416Z,3.06
2018-11-28T07:33:27.412Z,3.04
2018-11-28T07:34:27.301Z,3.06
2018-11-28T07:35:27.714Z,3.07
2018-11-28T07:36:27.489Z,3.08
2018-11-28T07:37:27.343Z,3.06
2018-11-28T07:38:27.708Z,3.04
2018-11-28T07:39:27.646Z,3.02
2018-11-28T07:40:27.367Z,3.06
2018-11-28T07:41:27.349Z,3.1
2018-11-28T07:42:27.322Z,3.05
2018-11-28T07:43:27.281Z,3.1
2018-11-28T07:44:27.421Z,3.12
2018-11-28T07:45:27.450Z,3.11
2018-11-28T07:46:28.419Z,3.12
2018-11-28T07:47:28.194Z,3.13
2018-11-28T07:48:27.284Z,3.12
2018-11-28T07:49:27.493Z,3.1
2018-11-28T07:50:27.240Z,3.13
2018-11-28T07:51:27.313Z,3.13
2018-11-28T07:52:27.358Z,3.08
2018-11-28T07:53:27.248Z,3.08
2018-11-28T07:54:27.257Z,3.04
2018-11-28T07:55:27.823Z,3.08
2018-11-28T07:56:27.264Z,3.05
2018-11-28T07:57:27.237Z,3.06
2018-11-28T07:58:27.279Z,3.06
2018-11-28T07:59:27.257Z,3.06
2018-11-28T08:00:27.365Z,3.05
2018-11-28T08:01:27.336Z,3.08
2018-11-28T08:02:27.359Z,3.06
2018-11-28T08:03:27.263Z,3.08
2018-11-28T08:04:27.624Z,3.06
2018-11-28T08:05:27.573Z,3.09
2018-11-28T08:06:27.738Z,3.06
2018-11-28T08:07:27.228Z,3.07
2018-11-28T08:08:27.250Z,3.07
2018-11-28T08:09:27.445Z,3.08
2018-11-28T08:10:27.816Z,3.09
2018-11-28T08:11:27.373Z,3.08
2018-11-28T08:12:27.315Z,3.09
2018-11-28T08:13:27.350Z,3.09
2018-11-28T08:14:27.406Z,3.11
2018-11-28T08:15:27.324Z,3.08
2018-11-28T08:16:27.207Z,3.1
2018-11-28T08:17:27.667Z,3.09
2018-11-28T08:18:27.253Z,3.1
2018-11-28T08:19:27.227Z,3.07
2018-11-28T08:20:27.404Z,3.11
2018-11-28T08:21:27.411Z,3.11
2018-11-28T08:22:27.682Z,3.07
2018-11-28T08:23:28.500Z,3.07
2018-11-28T08:24:27.355Z,3.08
2018-11-28T08:25:28.453Z,3.1
2018-11-28T08:26:27.676Z,3.1
2018-11-28T08:27:27.225Z,3.11
2018-11-28T08:28:27.351Z,3.14
2018-11-28T08:29:27.258Z,3.16
2018-11-28T08:30:27.329Z,3.15
2018-11-28T08:31:27.267Z,3.13
2018-11-28T08:32:27.312Z,3.15
2018-11-28T08:33:27.621Z,3.13
2018-11-28T08:34:27.425Z,3.15
2018-11-28T08:35:27.224Z,3.13
2018-11-28T08:36:27.269Z,3.17
2018-11-28T08:37:27.376Z,3.13
2018-11-28T08:38:27.247Z,3.15
2018-11-28T08:39:27.177Z,3.14
2018-11-28T08:40:27.416Z,3.15
2018-11-28T08:41:27.189Z,3.16
2018-11-28T08:42:27.300Z,3.13
2018-11-28T08:43:27.272Z,3.17
2018-11-28T08:44:27.210Z,3.15
2018-11-28T08:45:27.231Z,3.14
2018-11-28T08:46:27.342Z,3.13
2018-11-28T08:47:27.476Z,3.15
2018-11-28T08:48:27.182Z,3.17
2018-11-28T08:49:27.204Z,3.18
2018-11-28T08:50:27.145Z,3.17
2018-11-28T08:51:27.463Z,3.17
2018-11-28T08:52:27.242Z,3.18
2018-11-28T08:53:27.303Z,3.18
2018-11-28T08:54:27.180Z,3.17
2018-11-28T08:55:27.218Z,3.18
2018-11-28T08:56:27.221Z,3.18
2018-11-28T08:57:27.146Z,3.18
2018-11-28T08:58:27.340Z,3.13
2018-11-28T08:59:27.244Z,3.16
2018-11-28T09:00:27.302Z,3.14
2018-11-28T09:01:27.429Z,3.14
2018-11-28T09:02:27.317Z,3.18
2018-11-28T09:03:27.306Z,3.2
2018-11-28T09:04:27.515Z,3.21
2018-11-28T09:05:27.201Z,3.2
2018-11-28T09:06:27.203Z,3.22
2018-11-28T09:07:27.416Z,3.2
2018-11-28T09:08:27.200Z,3.19
2018-11-28T09:09:27.186Z,3.21
2018-11-28T09:10:27.543Z,3.24
2018-11-28T09:11:27.241Z,3.26
2018-11-28T09:12:27.286Z,3.27
2018-11-28T09:13:27.514Z,3.26
2018-11-28T09:14:27.547Z,3.3
2018-11-28T09:15:27.371Z,3.32
2018-11-28T09:16:27.174Z,3.34
2018-11-28T09:17:27.198Z,3.35
2018-11-28T09:18:27.135Z,3.37
2018-11-28T09:19:27.149Z,3.37
2018-11-28T09:20:27.467Z,3.37
2018-11-28T09:21:27.227Z,3.37
2018-11-28T09:22:27.213Z,3.39
2018-11-28T09:23:27.314Z,3.42
2018-11-28T09:24:27.157Z,3.44
2018-11-28T09:25:27.171Z,3.44
2018-11-28T09:26:27.184Z,3.44
2018-11-28T09:27:27.150Z,3.46
2018-11-28T09:28:27.147Z,3.44
2018-11-28T09:29:27.294Z,3.43
2018-11-28T09:30:27.193Z,3.45
2018-11-28T09:31:27.290Z,3.48
2018-11-28T09:32:27.204Z,3.5
2018-11-28T09:33:27.386Z,3.53
2018-11-28T09:34:27.288Z,3.54
2018-11-28T09:35:27.335Z,3.54
2018-11-28T09:36:27.187Z,3.54
2018-11-28T09:37:27.195Z,3.59
2018-11-28T09:38:27.200Z,3.56
2018-11-28T09:39:27.497Z,3.6
2018-11-28T09:40:27.232Z,3.58
2018-11-28T09:41:27.100Z,3.62
2018-11-28T09:42:27.243Z,3.59
2018-11-28T09:43:27.163Z,3.65
2018-11-28T09:44:27.255Z,3.65
2018-11-28T09:45:27.209Z,3.65
2018-11-28T09:46:27.156Z,3.69
2018-11-28T09:47:27.139Z,3.72
2018-11-28T09:48:27.183Z,3.71
2018-11-28T09:49:27.450Z,3.73
2018-11-28T09:50:27.233Z,3.75
2018-11-28T09:51:27.131Z,3.76
2018-11-28T09:52:27.180Z,3.78
2018-11-28T09:53:27.243Z,3.83
2018-11-28T09:54:27.267Z,3.85
2018-11-28T09:55:27.338Z,3.84
2018-11-28T09:56:27.963Z,3.92
2018-11-28T09:57:27.164Z,4
2018-11-28T09:58:27.072Z,4.07
2018-11-28T09:59:27.296Z,4.01
2018-11-28T10:00:27.346Z,4
2018-11-28T10:01:27.111Z,3.99
2018-11-28T10:02:27.185Z,4.05
2018-11-28T10:03:27.357Z,4.15
2018-11-28T10:04:27.074Z,4.28
2018-11-28T10:05:27.279Z,4.23
2018-11-28T10:06:27.160Z,4.25
2018-11-28T10:07:27.240Z,4.23
2018-11-28T10:08:27.233Z,4.21
2018-11-28T10:09:27.219Z,4.17
2018-11-28T10:10:27.237Z,4.15
2018-11-28T10:11:27.299Z,4.11
2018-11-28T10:12:27.251Z,4.13
2018-11-28T10:13:27.360Z,4.13
2018-11-28T10:14:27.085Z,4.11
2018-11-28T10:15:27.167Z,4.13
2018-11-28T10:16:27.201Z,4.11
2018-11-28T10:17:27.188Z,4.13
2018-11-28T10:18:27.091Z,4.14
2018-11-28T10:19:27.360Z,4.15
2018-11-28T10:20:27.227Z,4.14
2018-11-28T10:21:27.441Z,4.14
2018-11-28T10:22:27.124Z,4.16
2018-11-28T10:23:27.189Z,4.16
2018-11-28T10:24:27.290Z,4.19
2018-11-28T10:25:27.442Z,4.19
2018-11-28T10:26:27.138Z,4.18
2018-11-28T10:27:27.215Z,4.19
2018-11-28T10:28:27.200Z,4.2
2018-11-28T10:29:27.142Z,4.21
2018-11-28T10:30:27.337Z,4.21
2018-11-28T10:31:27.249Z,4.25
2018-11-28T10:32:27.059Z,4.27
2018-11-28T10:33:27.135Z,4.31
2018-11-28T10:34:29.943Z,4.32
2018-11-28T10:35:27.131Z,4.32
2018-11-28T10:36:27.316Z,4.34
2018-11-28T10:37:27.128Z,4.37
2018-11-28T10:38:27.285Z,4.38
2018-11-28T10:39:27.091Z,4.39
2018-11-28T10:40:27.064Z,4.41
2018-11-28T10:41:27.160Z,4.41
2018-11-28T10:42:27.167Z,4.44
2018-11-28T10:43:27.195Z,4.46
2018-11-28T10:44:27.181Z,4.47
2018-11-28T10:45:27.154Z,4.51
2018-11-28T10:46:27.976Z,4.53
2018-11-28T10:47:27.044Z,4.54
2018-11-28T10:48:27.194Z,4.58
2018-11-28T10:49:27.044Z,4.58
2018-11-28T10:50:27.138Z,4.62
2018-11-28T10:51:27.311Z,4.64
2018-11-28T10:52:27.221Z,4.68
2018-11-28T10:53:27.109Z,4.7
2018-11-28T10:54:27.408Z,4.71
2018-11-28T10:55:27.055Z,4.74
2018-11-28T10:56:27.302Z,4.77
2018-11-28T10:57:27.269Z,4.77
2018-11-28T10:58:27.908Z,4.79
2018-11-28T10:59:27.277Z,4.82
2018-11-28T11:00:26.992Z,4.84
2018-11-28T11:01:27.673Z,4.86
2018-11-28T11:02:27.107Z,4.88
2018-11-28T11:03:27.006Z,4.89
2018-11-28T11:04:27.558Z,4.9
2018-11-28T11:05:27.336Z,4.93
2018-11-28T11:06:27.401Z,4.94
2018-11-28T11:07:27.135Z,4.94
2018-11-28T11:08:27.280Z,4.96
2018-11-28T11:09:27.416Z,4.99
2018-11-28T11:10:27.075Z,4.97
2018-11-28T11:11:27.139Z,5.01
2018-11-28T11:12:27.204Z,5.02
2018-11-28T11:13:26.975Z,5.01
2018-11-28T11:14:27.135Z,5.06
2018-11-28T11:15:27.176Z,5.09
2018-11-28T11:16:27.176Z,5.11
2018-11-28T11:17:27.207Z,5.13
2018-11-28T11:18:28.445Z,5.15
2018-11-28T11:19:26.983Z,5.23
2018-11-28T11:20:26.974Z,5.25
2018-11-28T11:21:27.296Z,5.32
2018-11-28T11:22:27.160Z,5.37
2018-11-28T11:23:27.376Z,5.42
2018-11-28T11:24:27.215Z,5.46
2018-11-28T11:25:26.977Z,5.51
2018-11-28T11:26:27.441Z,5.59
2018-11-28T11:27:27.140Z,5.61
2018-11-28T11:28:27.409Z,5.6
2018-11-28T11:29:27.292Z,5.64
2018-11-28T11:30:26.978Z,5.61
2018-11-28T11:31:26.963Z,5.62
2018-11-28T11:32:27.073Z,5.62
2018-11-28T11:33:27.237Z,5.65
2018-11-28T11:34:27.302Z,5.68
2018-11-28T11:35:27.016Z,5.69
2018-11-28T11:36:27.074Z,5.7
2018-11-28T11:37:26.973Z,5.7
2018-11-28T11:38:27.208Z,5.74
2018-11-28T11:39:27.036Z,5.74
2018-11-28T11:40:26.966Z,5.71
2018-11-28T11:41:27.405Z,5.74
2018-11-28T11:42:26.947Z,5.77
2018-11-28T11:43:26.989Z,5.75
2018-11-28T11:44:26.952Z,5.74
2018-11-28T11:45:26.968Z,5.72
2018-11-28T11:46:26.925Z,5.75
2018-11-28T11:47:27.456Z,5.77
2018-11-28T11:48:26.940Z,5.81
2018-11-28T11:49:28.447Z,5.79
2018-11-28T11:50:26.924Z,5.74
2018-11-28T11:51:26.980Z,5.75
2018-11-28T11:52:27.870Z,5.78
2018-11-28T11:53:27.384Z,5.76
2018-11-28T11:54:26.948Z,5.77
2018-11-28T11:55:27.309Z,5.78
2018-11-28T11:56:27.742Z,5.82
2018-11-28T11:57:26.951Z,5.82
2018-11-28T11:58:27.335Z,5.79
2018-11-28T11:59:27.021Z,5.81
2018-11-28T12:00:26.974Z,5.82
2018-11-28T12:01:26.983Z,5.84
2018-11-28T12:02:26.982Z,5.83
2018-11-28T12:03:27.039Z,5.84
2018-11-28T12:04:26.934Z,5.87
2018-11-28T12:05:26.940Z,5.87
2018-11-28T12:06:26.925Z,5.82
2018-11-28T12:07:26.977Z,5.83
2018-11-28T12:08:27.165Z,5.85
2018-11-28T12:09:26.983Z,5.86
2018-11-28T12:10:27.001Z,5.84
2018-11-28T12:11:27.065Z,5.86
2018-11-28T12:12:28.627Z,5.87
2018-11-28T12:13:26.961Z,5.89
2018-11-28T12:14:27.015Z,5.9
2018-11-28T12:15:26.898Z,5.88
2018-11-28T12:16:26.965Z,5.91
2018-11-28T12:17:27.775Z,5.89
2018-11-28T12:18:26.971Z,5.91
2018-11-28T12:19:26.961Z,5.93
2018-11-28T12:20:26.985Z,5.93
2018-11-28T12:21:26.923Z,5.96
2018-11-28T12:22:26.956Z,5.99
2018-11-28T12:23:27.041Z,5.98
2018-11-28T12:24:27.147Z,5.96
2018-11-28T12:25:26.997Z,5.95
2018-11-28T12:26:27.127Z,5.95
2018-11-28T12:27:27.528Z,5.99
2018-11-28T12:28:27.036Z,5.95
2018-11-28T12:29:26.929Z,5.98
2018-11-28T12:30:27.255Z,5.97
2018-11-28T12:31:29.786Z,5.96
2018-11-28T12:32:26.991Z,5.96
2018-11-28T12:33:26.896Z,5.99
2018-11-28T12:34:26.968Z,6.01
2018-11-28T12:35:27.503Z,6
2018-11-28T12:36:27.024Z,6.03
2018-11-28T12:37:27.132Z,6.04
2018-11-28T12:38:27.356Z,6.03
2018-11-28T12:39:27.202Z,6.07
2018-11-28T12:40:26.922Z,6.08
2018-11-28T12:41:27.159Z,6.11
2018-11-28T12:42:27.063Z,6.08
2018-11-28T12:43:27.131Z,6.11
2018-11-28T12:44:27.089Z,6.13
2018-11-28T12:45:26.880Z,6.11
2018-11-28T12:46:26.944Z,6.15
2018-11-28T12:47:27.180Z,6.14
2018-11-28T12:48:27.010Z,6.19
2018-11-28T12:49:26.920Z,6.19
2018-11-28T12:50:27.324Z,6.19
2018-11-28T12:51:27.163Z,6.22
2018-11-28T12:52:26.998Z,6.22
2018-11-28T12:53:26.910Z,6.21
2018-11-28T12:54:27.174Z,6.24
2018-11-28T12:55:26.917Z,6.24
2018-11-28T12:56:27.051Z,6.24
2018-11-28T12:57:27.244Z,6.25
2018-11-28T12:58:26.884Z,6.25
2018-11-28T12:59:27.252Z,6.26
2018-11-28T13:00:26.904Z,6.26
2018-11-28T13:01:26.872Z,6.3
2018-11-28T13:02:26.956Z,6.27
2018-11-28T13:03:26.931Z,6.29
2018-11-28T13:04:27.078Z,6.3
2018-11-28T13:05:27.044Z,6.28
2018-11-28T13:06:27.102Z,6.28
2018-11-28T13:07:27.746Z,6.3
2018-11-28T13:08:26.818Z,6.28
2018-11-28T13:09:26.869Z,6.29
2018-11-28T13:10:26.830Z,6.27
2018-11-28T13:11:26.786Z,6.29
2018-11-28T13:12:26.834Z,6.28
2018-11-28T13:13:26.792Z,6.3
2018-11-28T13:14:26.991Z,6.3
2018-11-28T13:15:26.874Z,6.29
2018-11-28T13:16:27.064Z,6.31
2018-11-28T13:17:26.879Z,6.32
2018-11-28T13:18:27.051Z,6.32
2018-11-28T13:19:27.094Z,6.3
2018-11-28T13:20:26.798Z,6.32
2018-11-28T13:21:26.859Z,6.32